Tinian, Northern Mariana Islands
Current Conditions -  °F | °C
As of 6:50 PM on Monday 26 Jan 2015 (Local Time) from PGWT Reporting Station
Scattered Clouds Scattered Clouds  
Wind Chill: 81°   Ceiling: Unl
Heat Index: 85°   Visibility: 7mi
Dew Point: 73°   Wind: 10mph
Humidity: 79%   Direction: 90°E
Pressure: 29.89"   Gusts: NA
Location:  14.96°N, 145.63°E
Report Text: PGWT 260850Z 09009KT 7SM FEW015 SCT080 SCT100 27/23 A2989
Loading
Personal Weather Stations






























Interactive Weather Map New forecast layout! Learn more

10-Day Weather Forecast

Advertisements
Track Severe Weather on mobile